createdAt,value
2023-04-01T00:01:17.588Z,93.04
2023-04-01T00:03:46.363Z,93.03
2023-04-01T00:06:17.293Z,93.04
2023-04-01T00:08:46.515Z,93.10
2023-04-01T00:11:16.074Z,93.11
2023-04-01T00:13:45.006Z,93.07
2023-04-01T00:16:21.610Z,93.09
2023-04-01T00:18:51.767Z,93.05
2023-04-01T00:21:21.571Z,92.99
2023-04-01T00:23:51.674Z,92.94
2023-04-01T00:26:23.070Z,92.87
2023-04-01T00:28:52.083Z,92.71
2023-04-01T00:31:20.953Z,92.59
2023-04-01T00:33:50.273Z,92.51
2023-04-01T00:36:21.177Z,92.42
2023-04-01T00:38:50.744Z,92.35
2023-04-01T00:41:20.472Z,92.27
2023-04-01T00:43:51.932Z,92.18
2023-04-01T00:46:20.920Z,92.04
2023-04-01T00:48:55.070Z,91.92
2023-04-01T00:51:26.886Z,91.81
2023-04-01T00:53:57.937Z,91.67
2023-04-01T00:56:33.449Z,91.53
2023-04-01T00:59:12.986Z,91.46
2023-04-01T01:01:41.611Z,91.36
2023-04-01T01:04:28.776Z,91.30
2023-04-01T01:07:33.973Z,91.36
2023-04-01T01:10:16.998Z,91.50
2023-04-01T01:13:03.834Z,91.62
2023-04-01T01:15:54.201Z,91.86
2023-04-01T01:18:48.827Z,92.21
2023-04-01T01:21:21.192Z,92.37
2023-04-01T01:24:04.416Z,92.40
2023-04-01T01:26:44.002Z,92.64
2023-04-01T01:29:33.705Z,92.70
2023-04-01T01:32:33.813Z,92.84
2023-04-01T01:35:20.670Z,92.97
2023-04-01T01:37:54.145Z,93.03
2023-04-01T01:40:23.435Z,93.15
2023-04-01T01:42:55.970Z,93.23
2023-04-01T01:45:27.217Z,93.31
2023-04-01T01:47:59.212Z,93.32
2023-04-01T01:50:28.687Z,93.38
2023-04-01T01:53:10.078Z,93.47
2023-04-01T01:55:41.360Z,93.56
2023-04-01T01:58:25.012Z,93.52
2023-04-01T02:01:04.055Z,93.59
2023-04-01T02:03:37.570Z,93.57
2023-04-01T02:06:10.534Z,93.62
2023-04-01T02:08:53.250Z,93.55
2023-04-01T02:11:34.135Z,93.50
2023-04-01T02:14:15.016Z,93.45
2023-04-01T02:17:05.763Z,93.45
2023-04-01T02:19:39.469Z,93.40
2023-04-01T02:22:12.749Z,93.34
2023-04-01T02:24:42.684Z,93.29
2023-04-01T02:27:11.633Z,93.22
2023-04-01T02:29:40.435Z,93.16
2023-04-01T02:32:11.136Z,93.07
2023-04-01T02:34:40.280Z,92.98
2023-04-01T02:37:08.456Z,92.88
2023-04-01T02:39:36.711Z,92.81
2023-04-01T02:42:04.979Z,92.80
2023-04-01T02:44:33.128Z,92.74
2023-04-01T02:47:02.131Z,92.69
2023-04-01T02:49:30.451Z,92.66
2023-04-01T02:51:58.525Z,92.64
2023-04-01T02:54:26.737Z,92.69
2023-04-01T02:56:54.871Z,92.76
2023-04-01T02:59:23.417Z,92.88
2023-04-01T03:01:51.626Z,92.91
2023-04-01T03:04:20.544Z,92.98
2023-04-01T03:06:48.643Z,93.09
2023-04-01T03:09:17.230Z,93.20
2023-04-01T03:11:45.463Z,93.37
2023-04-01T03:14:13.420Z,93.46
2023-04-01T03:16:41.847Z,93.53
2023-04-01T03:19:10.134Z,93.60
2023-04-01T03:21:38.312Z,93.57
2023-04-01T03:24:07.429Z,93.56
2023-04-01T03:26:35.752Z,93.65
2023-04-01T03:29:03.919Z,93.71
2023-04-01T03:31:32.087Z,93.78
2023-04-01T03:34:00.566Z,93.89
2023-04-01T03:36:29.172Z,93.95
2023-04-01T03:38:57.283Z,93.93
2023-04-01T03:41:29.187Z,93.85
2023-04-01T03:43:57.266Z,93.86
2023-04-01T03:46:25.407Z,93.93
2023-04-01T03:48:53.568Z,93.88
2023-04-01T03:51:21.881Z,93.91
2023-04-01T03:53:50.560Z,93.92
2023-04-01T03:56:18.692Z,93.88
2023-04-01T03:58:47.100Z,93.81
2023-04-01T04:01:23.611Z,93.74
2023-04-01T04:03:54.408Z,93.69
2023-04-01T04:06:24.376Z,93.60
2023-04-01T04:08:53.204Z,93.54
2023-04-01T04:11:22.943Z,93.48
2023-04-01T04:13:53.495Z,93.42
2023-04-01T04:16:22.415Z,93.35
2023-04-01T04:18:56.239Z,93.29
2023-04-01T04:21:25.146Z,93.22
2023-04-01T04:23:53.385Z,93.16
2023-04-01T04:26:22.084Z,93.10
2023-04-01T04:29:00.938Z,93.07
2023-04-01T04:31:30.024Z,93.06
2023-04-01T04:34:02.433Z,93.04
2023-04-01T04:36:32.830Z,93.07
2023-04-01T04:39:04.330Z,93.09
2023-04-01T04:41:34.860Z,93.10
2023-04-01T04:44:06.047Z,93.08
2023-04-01T04:46:34.332Z,93.10
2023-04-01T04:49:12.500Z,93.11
2023-04-01T04:51:40.867Z,93.09
2023-04-01T04:54:09.857Z,93.09
2023-04-01T04:56:54.181Z,93.09
2023-04-01T04:59:22.995Z,93.12
2023-04-01T05:02:10.007Z,93.12
2023-04-01T05:04:38.356Z,93.12
2023-04-01T05:07:08.028Z,93.12
2023-04-01T05:09:36.319Z,93.12
2023-04-01T05:12:04.766Z,93.07
2023-04-01T05:14:52.114Z,93.05
2023-04-01T05:17:20.271Z,93.02
2023-04-01T05:19:48.362Z,92.98
2023-04-01T05:22:16.703Z,92.99
2023-04-01T05:24:44.922Z,92.98
2023-04-01T05:27:13.153Z,93.00
2023-04-01T05:29:42.652Z,93.00
2023-04-01T05:32:17.752Z,93.03
2023-04-01T05:34:46.358Z,93.06
2023-04-01T05:37:14.575Z,93.12
2023-04-01T05:39:43.258Z,93.14
2023-04-01T05:42:13.479Z,93.23
2023-04-01T05:44:41.762Z,93.34
2023-04-01T05:47:09.856Z,93.47
2023-04-01T05:49:38.133Z,93.55
2023-04-01T05:52:06.554Z,93.60
2023-04-01T05:54:36.363Z,93.63
2023-04-01T05:57:04.671Z,93.65
2023-04-01T05:59:32.870Z,93.65
2023-04-01T06:02:00.972Z,93.64
2023-04-01T06:04:37.429Z,93.64
2023-04-01T06:07:19.104Z,93.61
2023-04-01T06:09:47.506Z,93.60
2023-04-01T06:12:57.370Z,93.58
2023-04-01T06:15:38.961Z,93.61
2023-04-01T06:18:33.395Z,93.58
2023-04-01T06:21:33.440Z,93.57
2023-04-01T06:24:07.736Z,93.55
2023-04-01T06:26:48.262Z,93.54
2023-04-01T06:29:28.398Z,93.56
2023-04-01T06:32:40.225Z,93.62
2023-04-01T06:35:11.912Z,93.61
2023-04-01T06:38:04.042Z,93.60
2023-04-01T06:40:50.490Z,93.64
2023-04-01T06:43:30.910Z,93.60
2023-04-01T06:46:55.899Z,93.52
2023-04-01T06:49:51.863Z,93.47
2023-04-01T06:52:51.854Z,93.42
2023-04-01T06:55:49.193Z,93.37
2023-04-01T06:58:47.478Z,93.31
2023-04-01T07:01:24.003Z,93.32
2023-04-01T07:04:03.096Z,93.34
2023-04-01T07:06:46.464Z,93.30
2023-04-01T07:09:22.998Z,93.25
2023-04-01T07:12:38.055Z,93.24
2023-04-01T07:15:48.636Z,93.32
2023-04-01T07:18:33.633Z,93.32
2023-04-01T07:21:38.553Z,93.27
2023-04-01T07:24:25.736Z,93.27
2023-04-01T07:27:09.977Z,93.22
2023-04-01T07:29:39.629Z,93.19
2023-04-01T07:32:13.555Z,93.17
2023-04-01T07:35:03.804Z,93.15
2023-04-01T07:37:46.656Z,93.11
2023-04-01T07:40:36.783Z,93.07
2023-04-01T07:43:23.745Z,93.11
2023-04-01T07:45:59.779Z,93.10
2023-04-01T07:48:32.401Z,93.08
2023-04-01T07:51:32.937Z,93.05
2023-04-01T07:54:07.906Z,93.02
2023-04-01T07:56:50.609Z,93.04
2023-04-01T07:59:53.080Z,93.05
2023-04-01T08:02:46.430Z,93.05
2023-04-01T08:05:30.455Z,93.00
2023-04-01T08:08:21.293Z,93.02
2023-04-01T08:11:27.205Z,92.96
2023-04-01T08:15:05.581Z,93.01
2023-04-01T08:18:13.535Z,93.02
2023-04-01T08:20:52.224Z,93.07
2023-04-01T08:23:31.578Z,93.13
2023-04-01T08:26:12.957Z,93.13
2023-04-01T08:29:06.123Z,93.11
2023-04-01T08:32:20.965Z,93.07
2023-04-01T08:35:03.147Z,93.02
2023-04-01T08:37:58.809Z,92.96
2023-04-01T08:41:11.447Z,92.95
2023-04-01T08:44:15.583Z,92.83
2023-04-01T08:47:15.022Z,92.74
2023-04-01T08:54:08.470Z,92.58
2023-04-01T08:56:45.222Z,92.46
2023-04-01T08:59:36.242Z,92.26
2023-04-01T09:02:30.284Z,91.91
2023-04-01T09:06:19.119Z,91.74
2023-04-01T09:09:28.657Z,91.56
2023-04-01T09:12:10.111Z,91.51
2023-04-01T09:14:59.109Z,91.53
2023-04-01T09:17:44.891Z,91.62
2023-04-01T09:20:59.907Z,91.73
2023-04-01T09:23:42.055Z,91.73
2023-04-01T09:26:38.434Z,91.82
2023-04-01T09:29:25.478Z,92.00
2023-04-01T09:32:15.685Z,92.24
2023-04-01T09:35:51.594Z,92.12
2023-04-01T09:38:31.409Z,91.90
2023-04-01T09:41:08.293Z,91.85
2023-04-01T09:44:03.471Z,91.80
2023-04-01T09:46:57.631Z,91.71
2023-04-01T09:50:21.850Z,91.56
2023-04-01T09:53:42.133Z,91.54
2023-04-01T09:56:36.018Z,91.47
2023-04-01T09:59:27.580Z,91.38
2023-04-01T10:02:48.019Z,91.36
2023-04-01T10:05:50.088Z,91.36
2023-04-01T10:08:39.274Z,91.50
2023-04-01T10:11:23.083Z,91.58
2023-04-01T10:14:37.925Z,91.73
2023-04-01T10:17:47.666Z,91.96
2023-04-01T10:21:01.539Z,92.21
2023-04-01T10:24:21.289Z,92.30
2023-04-01T10:28:16.492Z,92.45
2023-04-01T10:31:35.585Z,92.50
2023-04-01T10:34:57.325Z,92.45
2023-04-01T10:38:37.969Z,92.66
2023-04-01T10:42:05.663Z,92.36
2023-04-01T10:45:18.817Z,92.06
2023-04-01T10:48:23.174Z,92.12
2023-04-01T10:51:11.997Z,92.26
2023-04-01T10:54:19.957Z,92.19
2023-04-01T10:58:00.137Z,91.95
2023-04-01T11:00:48.330Z,91.81
2023-04-01T11:04:20.196Z,91.32
2023-04-01T11:08:05.225Z,90.95
2023-04-01T11:10:50.830Z,90.70
2023-04-01T11:14:04.078Z,90.17
2023-04-01T11:16:49.704Z,90.11
2023-04-01T11:19:39.794Z,89.97
2023-04-01T11:22:24.288Z,89.69
2023-04-01T11:25:23.736Z,89.62
2023-04-01T11:28:42.250Z,89.41
2023-04-01T11:31:43.492Z,89.29
2023-04-01T11:34:36.226Z,89.30
2023-04-01T11:37:39.953Z,88.83
2023-04-01T11:40:49.710Z,88.75
2023-04-01T11:43:57.516Z,88.08
2023-04-01T11:46:43.845Z,88.14
2023-04-01T11:49:46.873Z,87.94
2023-04-01T11:52:32.937Z,87.94
2023-04-01T11:55:44.373Z,87.79
2023-04-01T11:58:37.879Z,87.80
2023-04-01T12:01:36.205Z,87.40
2023-04-01T12:04:08.054Z,87.25
2023-04-01T12:06:46.793Z,87.54
2023-04-01T12:09:51.536Z,87.31
2023-04-01T12:14:08.136Z,87.38
2023-04-01T12:18:01.293Z,86.98
2023-04-01T12:20:49.413Z,86.09
2023-04-01T12:23:49.062Z,86.20
2023-04-01T12:26:27.134Z,85.36
2023-04-01T12:29:23.472Z,85.78
2023-04-01T12:32:20.307Z,85.07
2023-04-01T12:35:39.749Z,84.95
2023-04-01T12:38:49.304Z,85.65
2023-04-01T12:41:52.480Z,84.48
2023-04-01T12:44:28.115Z,83.57
2023-04-01T12:50:39.110Z,84.90
2023-04-01T12:53:51.590Z,83.98
2023-04-01T12:56:48.742Z,83.72
2023-04-01T12:59:32.651Z,84.10
2023-04-01T13:02:54.905Z,84.20
2023-04-01T13:06:02.306Z,84.19
2023-04-01T13:12:55.156Z,83.96
2023-04-01T13:16:02.263Z,84.06
2023-04-01T13:19:20.125Z,83.63
2023-04-01T13:22:15.055Z,83.58
2023-04-01T13:27:57.871Z,83.99
2023-04-01T13:31:01.539Z,83.64
2023-04-01T13:33:38.709Z,83.93
2023-04-01T13:41:13.020Z,83.52
2023-04-01T13:44:17.997Z,83.12
2023-04-01T13:50:51.514Z,83.24
2023-04-01T13:54:04.700Z,83.70
2023-04-01T13:57:10.051Z,84.18
2023-04-01T14:00:18.187Z,84.21
2023-04-01T14:03:12.316Z,84.40
2023-04-01T14:06:16.426Z,84.68
2023-04-01T14:09:21.785Z,84.95
2023-04-01T14:12:39.941Z,85.23
2023-04-01T14:15:48.795Z,85.45
2023-04-01T14:18:40.717Z,85.59
2023-04-01T14:21:35.512Z,85.73
2023-04-01T14:25:43.370Z,85.78
2023-04-01T14:28:20.962Z,85.92
2023-04-01T14:31:14.159Z,86.17
2023-04-01T14:34:06.373Z,86.13
2023-04-01T14:37:27.553Z,86.19
2023-04-01T14:40:55.308Z,86.32
2023-04-01T14:44:04.597Z,86.38
2023-04-01T14:47:26.216Z,86.47
2023-04-01T14:50:50.734Z,86.26
2023-04-01T14:54:15.442Z,86.07
2023-04-01T14:57:23.436Z,85.87
2023-04-01T15:00:05.749Z,85.82
2023-04-01T15:03:11.619Z,85.94
2023-04-01T15:05:51.722Z,86.06
2023-04-01T15:08:59.663Z,86.37
2023-04-01T15:11:36.884Z,86.28
2023-04-01T15:14:23.254Z,86.35
2023-04-01T15:17:16.504Z,86.41
2023-04-01T15:20:23.082Z,86.66
2023-04-01T15:23:19.821Z,86.91
2023-04-01T15:26:48.249Z,87.12
2023-04-01T15:29:42.201Z,87.65
2023-04-01T15:32:40.246Z,87.97
2023-04-01T15:35:29.818Z,88.18
2023-04-01T15:38:40.360Z,88.26
2023-04-01T15:41:18.115Z,88.50
2023-04-01T15:43:50.704Z,88.68
2023-04-01T15:46:40.685Z,88.81
2023-04-01T15:49:21.105Z,88.93
2023-04-01T15:52:37.008Z,88.94
2023-04-01T15:55:27.549Z,88.79
2023-04-01T15:58:21.100Z,88.87
2023-04-01T16:01:32.795Z,88.97
2023-04-01T16:04:29.638Z,88.78
2023-04-01T16:07:22.356Z,88.64
2023-04-01T16:10:28.548Z,88.66
2023-04-01T16:13:08.913Z,88.68
2023-04-01T16:16:28.732Z,88.52
2023-04-01T16:19:20.613Z,88.39
2023-04-01T16:22:02.731Z,88.21
2023-04-01T16:24:42.921Z,88.16
2023-04-01T16:30:49.109Z,88.27
2023-04-01T16:33:51.705Z,88.37
2023-04-01T16:36:29.778Z,88.45
2023-04-01T16:39:26.385Z,88.41
2023-04-01T16:42:16.259Z,88.46
2023-04-01T16:45:29.507Z,88.42
2023-04-01T16:48:51.465Z,88.32
2023-04-01T16:51:25.536Z,88.22
2023-04-01T16:54:20.667Z,87.89
2023-04-01T16:57:17.892Z,87.66
2023-04-01T17:00:21.749Z,87.68
2023-04-01T17:03:13.170Z,87.54
2023-04-01T17:06:18.130Z,87.50
2023-04-01T17:08:49.466Z,87.48
2023-04-01T17:19:03.753Z,87.39
2023-04-01T17:22:03.478Z,87.33
2023-04-01T17:25:38.650Z,87.13
2023-04-01T17:28:55.178Z,87.07
2023-04-01T17:31:51.713Z,86.95
2023-04-01T17:34:44.605Z,86.88
2023-04-01T17:38:04.785Z,86.90
2023-04-01T17:41:17.985Z,86.93
2023-04-01T17:44:41.739Z,87.06
2023-04-01T17:47:37.423Z,87.06
2023-04-01T17:51:17.940Z,87.12
2023-04-01T17:54:04.011Z,87.19
2023-04-01T17:57:18.332Z,87.15
2023-04-01T18:00:42.225Z,87.28
2023-04-01T18:03:19.106Z,87.10
2023-04-01T18:06:06.850Z,87.02
2023-04-01T18:09:26.757Z,86.98
2023-04-01T18:13:13.584Z,86.89
2023-04-01T18:16:57.776Z,86.97
2023-04-01T18:20:03.823Z,86.92
2023-04-01T18:23:10.778Z,86.85
2023-04-01T18:25:54.358Z,86.80
2023-04-01T18:28:49.293Z,86.74
2023-04-01T18:31:27.260Z,86.61
2023-04-01T18:34:52.101Z,86.67
2023-04-01T18:38:17.479Z,86.77
2023-04-01T18:41:01.495Z,86.84
2023-04-01T18:43:48.381Z,86.94
2023-04-01T18:46:52.712Z,86.96
2023-04-01T18:50:49.769Z,86.97
2023-04-01T18:54:15.291Z,87.04
2023-04-01T18:59:46.495Z,87.03
2023-04-01T19:02:34.755Z,87.08
2023-04-01T19:05:26.781Z,87.13
2023-04-01T19:08:30.620Z,87.26
2023-04-01T19:11:30.827Z,87.38
2023-04-01T19:14:47.730Z,87.44
2023-04-01T19:18:37.458Z,87.35
2023-04-01T19:25:34.642Z,87.28
2023-04-01T19:29:41.397Z,87.19
2023-04-01T19:32:56.692Z,87.13
2023-04-01T19:36:37.893Z,87.18
2023-04-01T19:39:58.563Z,87.18
2023-04-01T19:43:59.497Z,87.26
2023-04-01T19:47:18.083Z,87.34
2023-04-01T19:50:36.878Z,87.41
2023-04-01T19:54:47.289Z,87.49
2023-04-01T19:58:04.797Z,87.50
2023-04-01T20:00:50.464Z,87.53
2023-04-01T20:03:48.102Z,87.59
2023-04-01T20:06:28.619Z,87.57
2023-04-01T20:09:41.743Z,87.57
2023-04-01T20:31:06.696Z,87.67
2023-04-01T20:33:55.156Z,87.74
2023-04-01T20:36:42.667Z,87.75
2023-04-01T20:39:32.939Z,87.76
2023-04-01T20:42:06.641Z,87.77
2023-04-01T20:45:24.865Z,87.81
2023-04-01T20:48:27.620Z,87.81
2023-04-01T20:51:54.517Z,87.79
2023-04-01T20:55:03.513Z,87.80
2023-04-01T20:58:05.055Z,87.75
2023-04-01T21:01:07.807Z,87.64
2023-04-01T21:03:50.056Z,87.60
2023-04-01T21:06:58.278Z,87.61
2023-04-01T21:10:14.333Z,87.58
2023-04-01T21:12:48.591Z,87.45
2023-04-01T21:15:30.070Z,87.46
2023-04-01T21:18:27.287Z,87.48
2023-04-01T21:21:37.060Z,87.52
2023-04-01T21:24:43.795Z,87.54
2023-04-01T21:27:25.110Z,87.56
2023-04-01T21:30:17.463Z,87.53
2023-04-01T21:33:03.428Z,87.56
2023-04-01T21:35:51.183Z,87.51
2023-04-01T21:38:42.137Z,87.46
2023-04-01T21:41:27.287Z,87.45
2023-04-01T21:44:43.269Z,87.45
2023-04-01T21:47:42.395Z,87.48
2023-04-01T21:50:37.365Z,87.53
2023-04-01T21:53:21.364Z,87.55
2023-04-01T21:55:52.607Z,87.56
2023-04-01T21:58:39.504Z,87.50
2023-04-01T22:01:37.150Z,87.47
2023-04-01T22:04:28.104Z,87.42
2023-04-01T22:07:01.427Z,87.26
2023-04-01T22:09:41.010Z,87.21
2023-04-01T22:12:19.261Z,87.20
2023-04-01T22:15:05.434Z,87.22
2023-04-01T22:17:42.881Z,87.18
2023-04-01T22:20:21.661Z,87.09
2023-04-01T22:23:08.449Z,87.15
2023-04-01T22:26:08.739Z,87.14
2023-04-01T22:28:55.260Z,87.16
2023-04-01T22:31:30.104Z,87.13
2023-04-01T22:34:10.481Z,87.06
2023-04-01T22:36:55.248Z,86.86
2023-04-01T22:39:28.565Z,86.76
2023-04-01T22:42:18.619Z,86.50
2023-04-01T22:44:58.257Z,86.37
2023-04-01T22:47:48.726Z,86.28
2023-04-01T22:50:24.034Z,86.24
2023-04-01T22:53:07.514Z,86.17
2023-04-01T22:55:39.616Z,86.09
2023-04-01T22:58:39.678Z,85.97
2023-04-01T23:01:14.468Z,85.83
2023-04-01T23:03:45.598Z,85.87
2023-04-01T23:06:19.961Z,85.91
2023-04-01T23:09:04.075Z,85.99
2023-04-01T23:11:56.685Z,85.90
2023-04-01T23:14:24.845Z,85.93
2023-04-01T23:17:05.424Z,85.98
2023-04-01T23:19:51.267Z,86.03
2023-04-01T23:22:39.445Z,86.04
2023-04-01T23:25:22.659Z,86.00
2023-04-01T23:28:12.630Z,86.11
2023-04-01T23:30:40.663Z,86.07
2023-04-01T23:33:20.932Z,86.19
2023-04-01T23:36:07.569Z,86.19
2023-04-01T23:38:39.190Z,86.16
2023-04-01T23:41:07.736Z,86.16
2023-04-01T23:43:40.069Z,86.17
2023-04-01T23:46:08.793Z,86.11
2023-04-01T23:48:40.456Z,86.23
2023-04-01T23:51:22.540Z,86.16
2023-04-01T23:54:18.529Z,86.25
2023-04-01T23:56:53.623Z,86.25
2023-04-01T23:59:40.401Z,86.27
